Time;durP1;ratioP1;P1;durP2;ratioP2;P2;SDS_P1;SDS_P2;PMS_P1;PMS_P2;Temp;Humidity;BMP_temperature;BMP_pressure;BME280_temperature;BME280_humidity;BME280_pressure;Samples;Min_cycle;Max_cycle;Signal;HPM_P1;HPM_P2
2023/03/05 00:08:05;;;;;;;66.25;22.83;;;0.80;99.90;;;;;;20774952;28;20087;-81
2023/03/05 00:18:06;;;;;;;66.05;21.70;;;0.80;99.90;;;;;;20787637;28;20025;-81
2023/03/05 00:28:07;;;;;;;67.45;21.52;;;0.80;99.90;;;;;;20867313;28;20032;-80
2023/03/05 00:38:10;;;;;;;69.40;22.80;;;1.00;99.90;;;;;;20796062;28;20045;-82
2023/03/05 00:48:10;;;;;;;65.20;22.63;;;1.10;99.90;;;;;;20840440;28;20040;-82
2023/03/05 00:58:11;;;;;;;67.95;22.58;;;1.20;99.90;;;;;;20823467;28;20037;-81
2023/03/05 01:08:12;;;;;;;65.97;22.02;;;1.00;99.90;;;;;;20846516;28;20119;-81
2023/03/05 01:18:13;;;;;;;72.38;22.48;;;1.10;99.90;;;;;;20836664;28;20113;-80
2023/03/05 01:28:14;;;;;;;71.88;23.63;;;1.30;99.90;;;;;;20817701;28;20040;-80
2023/03/05 01:38:15;;;;;;;72.68;21.92;;;1.30;99.90;;;;;;20833322;28;20029;-82
2023/03/05 01:48:16;;;;;;;67.55;21.77;;;1.40;99.90;;;;;;20850777;28;20128;-81
2023/03/05 01:58:17;;;;;;;69.28;23.20;;;1.30;99.90;;;;;;20813540;28;20128;-80
2023/03/05 02:08:20;;;;;;;63.55;22.35;;;1.10;99.90;;;;;;20793126;28;20659;-82
2023/03/05 02:18:21;;;;;;;67.35;21.90;;;0.90;99.90;;;;;;20807806;28;20455;-80
2023/03/05 02:28:45;;;;;;;75.55;22.70;;;0.90;99.90;;;;;;20825717;28;20026;-83
2023/03/05 02:38:47;;;;;;;67.50;21.90;;;0.80;99.90;;;;;;20758303;28;20405;-80
2023/03/05 02:48:49;;;;;;;72.68;23.08;;;0.90;99.90;;;;;;20772615;28;20036;-81
2023/03/05 02:58:50;;;;;;;64.47;23.10;;;1.00;99.90;;;;;;20843873;28;20029;-81
2023/03/05 03:08:51;;;;;;;65.47;23.10;;;0.80;99.90;;;;;;20780090;28;20044;-81
2023/03/05 03:18:52;;;;;;;70.07;22.55;;;0.70;99.90;;;;;;20813404;28;20037;-79
2023/03/05 03:28:52;;;;;;;65.65;20.63;;;0.60;99.90;;;;;;20837420;28;20546;-79
2023/03/05 03:38:53;;;;;;;63.03;21.13;;;0.60;99.90;;;;;;20837054;28;20044;-80
2023/03/05 03:48:54;;;;;;;71.13;23.45;;;0.30;99.90;;;;;;20835278;28;20040;-79
2023/03/05 03:58:55;;;;;;;72.28;24.10;;;0.10;99.90;;;;;;20817113;28;20025;-81
2023/03/05 04:08:56;;;;;;;70.90;22.13;;;-0.10;99.90;;;;;;20816941;28;20037;-81
2023/03/05 04:18:57;;;;;;;76.30;23.13;;;-0.20;99.90;;;;;;20815561;28;20075;-80
2023/03/05 04:28:58;;;;;;;71.95;23.33;;;-0.60;99.90;;;;;;20848082;28;20423;-78
2023/03/05 04:38:58;;;;;;;78.10;24.02;;;-1.00;99.90;;;;;;20832147;28;20109;-78
2023/03/05 04:48:59;;;;;;;86.82;24.70;;;-1.30;99.90;;;;;;20846416;28;20037;-78
2023/03/05 04:59:00;;;;;;;71.22;23.33;;;-1.30;99.90;;;;;;20828992;28;20033;-78
2023/03/05 05:09:01;;;;;;;75.65;22.42;;;-1.50;99.90;;;;;;20830440;28;20034;-80
2023/03/05 05:19:02;;;;;;;84.78;24.35;;;-1.70;99.90;;;;;;20829533;28;20558;-79
2023/03/05 05:29:03;;;;;;;82.82;23.10;;;-1.70;99.90;;;;;;20811114;28;20052;-79
2023/03/05 05:39:04;;;;;;;80.72;24.77;;;-1.60;99.90;;;;;;20827569;28;20034;-80
2023/03/05 05:49:04;;;;;;;77.30;23.42;;;-1.90;99.90;;;;;;20827807;28;20065;-78
2023/03/05 05:59:05;;;;;;;72.47;22.55;;;-2.00;99.90;;;;;;20823922;28;20026;-80
2023/03/05 06:09:06;;;;;;;83.47;22.98;;;-1.90;99.90;;;;;;20838497;28;20437;-80
2023/03/05 06:19:12;;;;;;;83.65;24.92;;;-2.10;99.90;;;;;;20830342;28;20029;-80
2023/03/05 06:29:13;;;;;;;79.72;24.60;;;-2.00;99.90;;;;;;20846132;28;20516;-78
2023/03/05 06:39:14;;;;;;;72.32;22.73;;;-1.90;99.90;;;;;;20841387;28;20030;-77
2023/03/05 06:49:14;;;;;;;77.90;21.30;;;-2.00;99.90;;;;;;20842603;28;20140;-79
2023/03/05 06:59:16;;;;;;;84.70;24.17;;;-1.90;99.90;;;;;;20839140;28;20573;-80
2023/03/05 07:09:17;;;;;;;76.07;23.42;;;-1.60;99.90;;;;;;20820009;28;20446;-80
2023/03/05 07:19:18;;;;;;;64.40;18.05;;;-1.10;99.90;;;;;;20803780;28;20053;-78
2023/03/05 07:29:18;;;;;;;69.70;23.17;;;1.20;99.90;;;;;;20737315;28;20091;-81
2023/03/05 07:39:19;;;;;;;60.63;20.70;;;3.20;99.90;;;;;;20762707;28;20034;-79
2023/03/05 07:49:21;;;;;;;67.70;21.02;;;3.20;99.90;;;;;;20796120;28;20170;-80
2023/03/05 07:59:22;;;;;;;56.95;20.85;;;3.30;99.90;;;;;;20817811;28;20037;-79
2023/03/05 08:09:22;;;;;;;54.47;19.30;;;3.50;99.90;;;;;;20831599;28;20045;-81
2023/03/05 08:19:23;;;;;;;54.42;18.48;;;3.90;99.90;;;;;;20805976;28;20041;-79
2023/03/05 08:29:25;;;;;;;58.05;18.83;;;3.90;99.90;;;;;;20791588;28;20485;-80
2023/03/05 08:39:26;;;;;;;49.92;17.83;;;4.50;99.90;;;;;;20754555;28;20087;-79
2023/03/05 08:49:27;;;;;;;50.50;17.83;;;5.40;99.90;;;;;;20790060;28;20037;-80
2023/03/05 08:59:28;;;;;;;;;;;6.00;99.90;;;;;;20837721;28;20041;-80
2023/03/05 09:09:30;;;;;;;39.63;13.68;;;6.80;99.90;;;;;;20819138;28;19909;-81
2023/03/05 09:19:31;;;;;;;33.95;12.88;;;7.40;99.90;;;;;;20776539;28;20034;-79
2023/03/05 09:29:32;;;;;;;27.93;11.47;;;8.10;99.90;;;;;;20790617;28;20026;-81
2023/03/05 09:39:33;;;;;;;35.00;12.43;;;7.20;99.90;;;;;;20827368;28;20046;-80
2023/03/05 09:49:51;;;;;;;30.43;12.67;;;8.20;99.90;;;;;;20830040;28;20491;-79
2023/03/05 09:59:58;;;;;;;33.65;13.07;;;9.30;99.90;;;;;;20795285;28;20500;-80
2023/03/05 10:10:00;;;;;;;27.23;12.00;;;9.50;99.90;;;;;;20775936;28;20044;-80
2023/03/05 10:20:25;;;;;;;32.92;13.60;;;9.70;99.90;;;;;;20826286;28;20124;-81
2023/03/05 10:30:44;;;;;;;34.85;14.88;;;11.20;99.90;;;;;;20831695;28;20067;-80
2023/03/05 10:40:51;;;;;;;36.30;15.15;;;10.80;99.90;;;;;;20819247;28;20061;-81
2023/03/05 10:51:15;;;;;;;31.00;13.80;;;10.10;99.90;;;;;;20811147;28;20032;-80
2023/03/05 11:01:26;;;;;;;31.92;13.70;;;9.70;99.90;;;;;;20807762;28;20096;-80
2023/03/05 11:11:32;;;;;;;24.35;10.32;;;11.40;99.90;;;;;;20836711;28;20040;-79
2023/03/05 11:21:32;;;;;;;21.10;9.43;;;11.80;99.90;;;;;;20807570;28;20042;-79
2023/03/05 11:31:33;;;;;;;23.97;10.33;;;12.40;99.90;;;;;;20848842;28;20021;-79
2023/03/05 11:41:44;;;;;;;19.67;8.93;;;13.50;99.90;;;;;;20816481;28;20089;-79
2023/03/05 11:51:49;;;;;;;19.17;9.43;;;12.70;99.90;;;;;;20841406;28;20053;-81
2023/03/05 12:01:53;;;;;;;20.98;9.45;;;12.00;99.90;;;;;;20800495;28;20149;-80
2023/03/05 12:12:36;;;;;;;19.63;8.20;;;11.40;99.90;;;;;;20790608;28;20029;-80
2023/03/05 12:22:40;;;;;;;16.10;6.93;;;11.20;99.90;;;;;;20808240;28;20435;-80
2023/03/05 12:32:43;;;;;;;19.77;7.20;;;12.40;99.90;;;;;;20791272;28;20333;-81
2023/03/05 12:42:56;;;;;;;18.25;7.18;;;13.50;98.40;;;;;;21063517;27;20509;-83
2023/03/05 12:53:18;;;;;;;22.17;8.48;;;13.10;97.70;;;;;;21062132;28;20028;-82
2023/03/05 13:03:41;;;;;;;23.20;9.73;;;12.20;98.40;;;;;;21042575;28;20489;-83
2023/03/05 13:13:45;;;;;;;26.52;9.98;;;11.90;99.30;;;;;;21039627;28;20065;-81
2023/03/05 13:23:58;;;;;;;21.38;9.38;;;10.70;99.90;;;;;;21042259;28;20036;-83
2023/03/05 13:34:30;;;;;;;28.17;9.80;;;10.90;99.60;;;;;;21013465;28;20028;-82
2023/03/05 13:44:33;;;;;;;45.07;17.33;;;9.80;99.90;;;;;;21045085;28;20421;-86
2023/03/05 13:54:33;;;;;;;26.23;9.45;;;9.30;99.90;;;;;;20985511;28;20064;-83
2023/03/05 14:04:36;;;;;;;28.17;9.93;;;9.40;99.90;;;;;;21003608;28;20032;-85
2023/03/05 14:14:37;;;;;;;25.15;9.73;;;9.20;99.90;;;;;;20982887;28;20074;-84
2023/03/05 14:24:50;;;;;;;28.50;10.25;;;9.50;99.90;;;;;;20982726;28;20485;-85
2023/03/05 14:34:56;;;;;;;27.70;11.00;;;8.90;99.90;;;;;;20999471;28;20036;-83
2023/03/05 14:45:00;;;;;;;28.25;10.65;;;8.70;99.90;;;;;;20980895;28;20112;-84
2023/03/05 14:55:01;;;;;;;23.60;9.73;;;9.60;99.90;;;;;;20984102;28;20028;-84
2023/03/05 15:05:02;;;;;;;23.05;8.80;;;9.00;99.90;;;;;;20981484;28;20422;-83
2023/03/05 15:15:04;;;;;;;23.53;9.23;;;9.10;99.90;;;;;;20982496;28;20411;-83
2023/03/05 15:25:05;;;;;;;18.05;7.75;;;9.10;99.90;;;;;;20989534;28;20857;-82
2023/03/05 15:35:06;;;;;;;20.30;7.30;;;8.80;99.90;;;;;;20993628;28;20032;-82
2023/03/05 15:45:07;;;;;;;16.08;6.97;;;9.00;99.90;;;;;;20985582;28;20128;-81
2023/03/05 15:55:08;;;;;;;16.60;5.95;;;8.70;99.90;;;;;;20912504;28;20444;-83
2023/03/05 16:05:09;;;;;;;21.02;7.60;;;8.10;99.90;;;;;;20921046;28;20363;-81
2023/03/05 16:15:14;;;;;;;29.98;11.38;;;8.20;99.90;;;;;;20909239;28;20032;-81
2023/03/05 16:25:15;;;;;;;26.67;11.75;;;7.50;99.90;;;;;;20973104;28;20512;-81
2023/03/05 16:35:16;;;;;;;18.05;8.45;;;7.50;99.90;;;;;;20940339;28;20516;-81
2023/03/05 16:45:17;;;;;;;23.63;9.57;;;7.20;99.90;;;;;;20964819;28;20528;-84
2023/03/05 16:55:18;;;;;;;19.02;6.70;;;6.90;99.90;;;;;;20937127;28;20815;-83
2023/03/05 17:05:19;;;;;;;20.33;6.87;;;6.50;99.90;;;;;;20927485;28;20407;-83
2023/03/05 17:15:20;;;;;;;18.25;7.32;;;6.10;99.90;;;;;;20912032;28;20029;-81
2023/03/05 17:25:21;;;;;;;;;;;5.80;99.90;;;;;;20918948;28;20045;-82
2023/03/05 17:35:22;;;;;;;16.92;6.65;;;5.50;99.90;;;;;;21006066;28;19913;-83
2023/03/05 17:45:23;;;;;;;18.40;6.40;;;5.30;99.90;;;;;;21010607;28;20397;-82
2023/03/05 17:55:24;;;;;;;;;;;5.20;99.90;;;;;;20973555;28;20460;-82
2023/03/05 18:05:26;;;;;;;18.98;7.15;;;4.70;99.90;;;;;;20988149;28;20407;-83
2023/03/05 18:15:28;;;;;;;16.50;6.78;;;4.10;99.90;;;;;;21003114;28;20032;-80
2023/03/05 18:25:30;;;;;;;15.80;7.00;;;3.60;99.90;;;;;;21003622;28;20040;-81
2023/03/05 18:35:32;;;;;;;21.48;7.45;;;2.80;99.90;;;;;;20998099;28;20047;-81
2023/03/05 18:45:33;;;;;;;17.80;7.72;;;2.80;99.90;;;;;;20981880;28;20042;-82
2023/03/05 18:55:35;;;;;;;20.20;7.97;;;2.10;99.90;;;;;;21000830;28;20060;-81
2023/03/05 19:05:37;;;;;;;22.58;8.32;;;1.60;99.90;;;;;;21000404;28;20028;-83
2023/03/05 19:15:39;;;;;;;19.92;8.07;;;1.20;99.90;;;;;;20985613;28;20033;-82
2023/03/05 19:25:40;;;;;;;23.25;8.80;;;1.50;99.90;;;;;;21001360;28;20090;-82
2023/03/05 19:35:41;;;;;;;22.92;8.98;;;1.00;99.90;;;;;;21001567;28;20031;-81
2023/03/05 19:45:42;;;;;;;23.58;9.23;;;0.80;99.90;;;;;;20977219;28;20040;-82
2023/03/05 19:55:43;;;;;;;27.33;10.48;;;0.40;99.90;;;;;;20944245;28;20115;-82
2023/03/05 20:05:43;;;;;;;20.30;7.82;;;0.80;99.90;;;;;;20970637;28;20029;-83
2023/03/05 20:15:44;;;;;;;17.73;8.02;;;0.50;99.90;;;;;;20946987;28;20029;-83
2023/03/05 20:25:49;;;;;;;18.15;8.23;;;0.60;99.90;;;;;;20955733;28;20044;-82
2023/03/05 20:35:52;;;;;;;16.98;7.40;;;0.60;99.90;;;;;;20976532;28;20036;-82
2023/03/05 20:45:55;;;;;;;17.90;7.43;;;0.50;99.90;;;;;;20960527;28;20127;-82
2023/03/05 20:55:56;;;;;;;21.55;7.93;;;0.60;99.90;;;;;;20992483;28;20063;-84
2023/03/05 21:05:57;;;;;;;23.85;8.05;;;0.50;99.90;;;;;;21014842;28;20037;-82
2023/03/05 21:15:58;;;;;;;22.08;8.95;;;0.20;99.90;;;;;;21014212;28;20075;-82
2023/03/05 21:26:00;;;;;;;23.85;8.05;;;0.40;99.90;;;;;;21014234;28;20032;-83
2023/03/05 21:36:01;;;;;;;19.63;8.05;;;0.70;99.90;;;;;;21007094;28;20478;-82
2023/03/05 21:46:03;;;;;;;24.60;7.28;;;0.90;99.90;;;;;;21005784;28;20513;-84
2023/03/05 22:06:18;;;;;;;19.05;8.40;;;0.30;99.90;;;;;;21008869;28;20032;-84
2023/03/05 22:16:21;;;;;;;17.38;8.35;;;0.50;99.90;;;;;;20992716;28;20485;-84
2023/03/05 22:26:25;;;;;;;21.80;7.78;;;0.40;99.90;;;;;;21009532;28;20044;-84
2023/03/05 22:36:26;;;;;;;25.85;8.82;;;0.30;99.90;;;;;;21008008;28;20033;-84
2023/03/05 22:46:27;;;;;;;20.92;7.85;;;0.10;99.90;;;;;;21005679;28;20032;-84
2023/03/05 22:56:27;;;;;;;24.67;7.82;;;0.20;99.90;;;;;;20987223;28;20122;-84
2023/03/05 23:06:28;;;;;;;17.25;7.22;;;0.20;99.90;;;;;;20986488;28;20679;-84
2023/03/05 23:16:29;;;;;;;18.60;7.68;;;0.40;99.90;;;;;;21002181;28;20374;-84
2023/03/05 23:26:30;;;;;;;20.40;8.05;;;0.70;99.90;;;;;;20997820;28;20485;-84
2023/03/05 23:36:31;;;;;;;18.30;7.35;;;0.80;99.90;;;;;;20998194;28;20028;-83
2023/03/05 23:46:31;;;;;;;19.92;7.85;;;0.70;99.90;;;;;;20997828;28;20032;-83
2023/03/05 23:56:32;;;;;;;18.27;6.65;;;0.60;99.90;;;;;;20979592;28;20036;-84
